sensor_id;sensor_type;location;lat;lon;timestamp;P1;durP1;ratioP1;P2;durP2;ratioP2
48993;SDS011;34804;49.214;12.276;2023-10-31T00:00:17;9.95;;;6.60;;
48993;SDS011;34804;49.214;12.276;2023-10-31T00:02:45;9.32;;;6.45;;
48993;SDS011;34804;49.214;12.276;2023-10-31T00:05:12;10.05;;;6.60;;
48993;SDS011;34804;49.214;12.276;2023-10-31T00:07:38;10.95;;;6.57;;
48993;SDS011;34804;49.214;12.276;2023-10-31T00:10:06;10.60;;;6.50;;
48993;SDS011;34804;49.214;12.276;2023-10-31T00:12:33;9.38;;;6.57;;
48993;SDS011;34804;49.214;12.276;2023-10-31T00:15:00;9.13;;;6.75;;
48993;SDS011;34804;49.214;12.276;2023-10-31T00:17:32;10.97;;;7.20;;
48993;SDS011;34804;49.214;12.276;2023-10-31T00:19:59;12.80;;;8.07;;
48993;SDS011;34804;49.214;12.276;2023-10-31T00:22:28;11.07;;;7.72;;
48993;SDS011;34804;49.214;12.276;2023-10-31T00:24:59;10.90;;;6.65;;
48993;SDS011;34804;49.214;12.276;2023-10-31T00:27:26;11.45;;;6.93;;
48993;SDS011;34804;49.214;12.276;2023-10-31T00:29:53;9.63;;;7.07;;
48993;SDS011;34804;49.214;12.276;2023-10-31T00:32:20;10.73;;;6.93;;
48993;SDS011;34804;49.214;12.276;2023-10-31T00:34:47;11.15;;;7.57;;
48993;SDS011;34804;49.214;12.276;2023-10-31T00:37:14;11.60;;;6.90;;
48993;SDS011;34804;49.214;12.276;2023-10-31T00:39:41;13.65;;;7.57;;
48993;SDS011;34804;49.214;12.276;2023-10-31T00:42:11;11.25;;;7.20;;
48993;SDS011;34804;49.214;12.276;2023-10-31T00:44:40;12.45;;;7.18;;
48993;SDS011;34804;49.214;12.276;2023-10-31T00:47:07;11.23;;;7.47;;
48993;SDS011;34804;49.214;12.276;2023-10-31T00:49:35;8.57;;;6.30;;
48993;SDS011;34804;49.214;12.276;2023-10-31T00:52:02;10.20;;;6.03;;
48993;SDS011;34804;49.214;12.276;2023-10-31T00:54:29;11.68;;;6.43;;
48993;SDS011;34804;49.214;12.276;2023-10-31T00:57:00;9.98;;;4.70;;
48993;SDS011;34804;49.214;12.276;2023-10-31T00:59:27;7.53;;;4.05;;
48993;SDS011;34804;49.214;12.276;2023-10-31T01:01:54;6.82;;;4.05;;
48993;SDS011;34804;49.214;12.276;2023-10-31T01:04:21;6.20;;;3.60;;
48993;SDS011;34804;49.214;12.276;2023-10-31T01:06:49;6.38;;;3.42;;
48993;SDS011;34804;49.214;12.276;2023-10-31T01:09:16;7.03;;;3.63;;
48993;SDS011;34804;49.214;12.276;2023-10-31T01:11:43;5.47;;;3.35;;
48993;SDS011;34804;49.214;12.276;2023-10-31T01:14:14;5.22;;;3.20;;
48993;SDS011;34804;49.214;12.276;2023-10-31T01:16:41;6.18;;;2.80;;
48993;SDS011;34804;49.214;12.276;2023-10-31T01:19:13;5.57;;;2.65;;
48993;SDS011;34804;49.214;12.276;2023-10-31T01:21:40;4.30;;;2.20;;
48993;SDS011;34804;49.214;12.276;2023-10-31T01:24:07;5.97;;;2.38;;
48993;SDS011;34804;49.214;12.276;2023-10-31T01:26:39;3.78;;;1.88;;
48993;SDS011;34804;49.214;12.276;2023-10-31T01:29:06;3.88;;;1.80;;
48993;SDS011;34804;49.214;12.276;2023-10-31T01:31:34;4.60;;;1.95;;
48993;SDS011;34804;49.214;12.276;2023-10-31T01:34:21;5.15;;;1.88;;
48993;SDS011;34804;49.214;12.276;2023-10-31T01:36:48;4.13;;;1.90;;
48993;SDS011;34804;49.214;12.276;2023-10-31T01:39:15;3.50;;;1.58;;
48993;SDS011;34804;49.214;12.276;2023-10-31T01:41:44;4.70;;;1.80;;
48993;SDS011;34804;49.214;12.276;2023-10-31T01:44:10;3.17;;;1.55;;
48993;SDS011;34804;49.214;12.276;2023-10-31T01:46:37;3.50;;;1.50;;
48993;SDS011;34804;49.214;12.276;2023-10-31T01:49:04;2.72;;;1.20;;
48993;SDS011;34804;49.214;12.276;2023-10-31T01:51:31;3.10;;;1.23;;
48993;SDS011;34804;49.214;12.276;2023-10-31T01:53:58;3.70;;;1.20;;
48993;SDS011;34804;49.214;12.276;2023-10-31T01:56:25;4.47;;;1.40;;
48993;SDS011;34804;49.214;12.276;2023-10-31T01:58:53;2.30;;;1.00;;
48993;SDS011;34804;49.214;12.276;2023-10-31T02:01:20;3.25;;;1.17;;
48993;SDS011;34804;49.214;12.276;2023-10-31T02:03:47;2.55;;;1.10;;
48993;SDS011;34804;49.214;12.276;2023-10-31T02:06:15;3.97;;;1.20;;
48993;SDS011;34804;49.214;12.276;2023-10-31T02:08:42;2.42;;;1.10;;
48993;SDS011;34804;49.214;12.276;2023-10-31T02:11:09;2.33;;;1.23;;
48993;SDS011;34804;49.214;12.276;2023-10-31T02:13:37;2.70;;;1.10;;
48993;SDS011;34804;49.214;12.276;2023-10-31T02:16:04;2.17;;;1.10;;
48993;SDS011;34804;49.214;12.276;2023-10-31T02:18:31;4.40;;;1.30;;
48993;SDS011;34804;49.214;12.276;2023-10-31T02:20:59;2.10;;;1.00;;
48993;SDS011;34804;49.214;12.276;2023-10-31T02:23:26;2.80;;;1.20;;
48993;SDS011;34804;49.214;12.276;2023-10-31T02:25:53;2.05;;;1.00;;
48993;SDS011;34804;49.214;12.276;2023-10-31T02:28:20;2.30;;;0.93;;
48993;SDS011;34804;49.214;12.276;2023-10-31T02:30:47;2.58;;;1.20;;
48993;SDS011;34804;49.214;12.276;2023-10-31T02:33:14;3.35;;;1.00;;
48993;SDS011;34804;49.214;12.276;2023-10-31T02:35:41;1.70;;;0.88;;
48993;SDS011;34804;49.214;12.276;2023-10-31T02:38:08;2.55;;;1.10;;
48993;SDS011;34804;49.214;12.276;2023-10-31T02:40:35;2.13;;;1.00;;
48993;SDS011;34804;49.214;12.276;2023-10-31T02:43:02;1.75;;;0.85;;
48993;SDS011;34804;49.214;12.276;2023-10-31T02:45:29;2.03;;;1.02;;
48993;SDS011;34804;49.214;12.276;2023-10-31T02:47:56;2.60;;;1.00;;
48993;SDS011;34804;49.214;12.276;2023-10-31T02:50:23;2.63;;;1.00;;
48993;SDS011;34804;49.214;12.276;2023-10-31T02:52:50;2.65;;;1.10;;
48993;SDS011;34804;49.214;12.276;2023-10-31T02:55:17;1.92;;;0.90;;
48993;SDS011;34804;49.214;12.276;2023-10-31T02:57:44;3.33;;;1.10;;
48993;SDS011;34804;49.214;12.276;2023-10-31T03:00:11;2.95;;;1.00;;
48993;SDS011;34804;49.214;12.276;2023-10-31T03:02:38;2.13;;;0.90;;
48993;SDS011;34804;49.214;12.276;2023-10-31T03:05:05;2.00;;;0.90;;
48993;SDS011;34804;49.214;12.276;2023-10-31T03:07:32;4.38;;;1.20;;
48993;SDS011;34804;49.214;12.276;2023-10-31T03:09:59;2.90;;;1.15;;
48993;SDS011;34804;49.214;12.276;2023-10-31T03:12:27;2.30;;;0.95;;
48993;SDS011;34804;49.214;12.276;2023-10-31T03:14:55;1.52;;;0.80;;
48993;SDS011;34804;49.214;12.276;2023-10-31T03:17:21;2.33;;;1.02;;
48993;SDS011;34804;49.214;12.276;2023-10-31T03:19:49;1.88;;;0.82;;
48993;SDS011;34804;49.214;12.276;2023-10-31T03:22:15;1.25;;;0.75;;
48993;SDS011;34804;49.214;12.276;2023-10-31T03:24:42;2.25;;;1.10;;
48993;SDS011;34804;49.214;12.276;2023-10-31T03:27:09;3.38;;;0.80;;
48993;SDS011;34804;49.214;12.276;2023-10-31T03:29:36;2.17;;;1.00;;
48993;SDS011;34804;49.214;12.276;2023-10-31T03:32:03;1.55;;;0.80;;
48993;SDS011;34804;49.214;12.276;2023-10-31T03:34:31;1.80;;;0.80;;
48993;SDS011;34804;49.214;12.276;2023-10-31T03:36:58;2.08;;;0.90;;
48993;SDS011;34804;49.214;12.276;2023-10-31T03:39:25;1.27;;;0.70;;
48993;SDS011;34804;49.214;12.276;2023-10-31T03:41:52;1.98;;;0.70;;
48993;SDS011;34804;49.214;12.276;2023-10-31T03:44:19;1.70;;;0.70;;
48993;SDS011;34804;49.214;12.276;2023-10-31T03:46:46;2.40;;;1.20;;
48993;SDS011;34804;49.214;12.276;2023-10-31T03:49:13;1.60;;;0.80;;
48993;SDS011;34804;49.214;12.276;2023-10-31T03:51:40;2.50;;;0.90;;
48993;SDS011;34804;49.214;12.276;2023-10-31T03:54:07;1.65;;;0.80;;
48993;SDS011;34804;49.214;12.276;2023-10-31T03:56:42;1.90;;;0.80;;
48993;SDS011;34804;49.214;12.276;2023-10-31T03:59:09;2.05;;;0.95;;
48993;SDS011;34804;49.214;12.276;2023-10-31T04:01:36;1.75;;;0.70;;
48993;SDS011;34804;49.214;12.276;2023-10-31T04:04:03;2.00;;;0.73;;
48993;SDS011;34804;49.214;12.276;2023-10-31T04:06:30;1.33;;;0.70;;
48993;SDS011;34804;49.214;12.276;2023-10-31T04:08:57;1.45;;;0.70;;
48993;SDS011;34804;49.214;12.276;2023-10-31T04:11:24;2.83;;;0.57;;
48993;SDS011;34804;49.214;12.276;2023-10-31T04:13:51;0.80;;;0.40;;
48993;SDS011;34804;49.214;12.276;2023-10-31T04:16:18;1.60;;;0.55;;
48993;SDS011;34804;49.214;12.276;2023-10-31T04:18:45;0.70;;;0.45;;
48993;SDS011;34804;49.214;12.276;2023-10-31T04:21:11;0.85;;;0.50;;
48993;SDS011;34804;49.214;12.276;2023-10-31T04:23:38;3.15;;;0.52;;
48993;SDS011;34804;49.214;12.276;2023-10-31T04:26:05;1.80;;;0.60;;
48993;SDS011;34804;49.214;12.276;2023-10-31T04:28:32;3.20;;;0.68;;
48993;SDS011;34804;49.214;12.276;2023-10-31T04:30:59;2.55;;;0.70;;
48993;SDS011;34804;49.214;12.276;2023-10-31T04:33:26;3.10;;;0.60;;
48993;SDS011;34804;49.214;12.276;2023-10-31T04:35:53;1.40;;;0.60;;
48993;SDS011;34804;49.214;12.276;2023-10-31T04:38:20;1.85;;;0.55;;
48993;SDS011;34804;49.214;12.276;2023-10-31T04:40:47;1.67;;;0.35;;
48993;SDS011;34804;49.214;12.276;2023-10-31T04:43:14;1.55;;;0.60;;
48993;SDS011;34804;49.214;12.276;2023-10-31T04:45:41;1.40;;;0.43;;
48993;SDS011;34804;49.214;12.276;2023-10-31T04:48:08;2.00;;;0.50;;
48993;SDS011;34804;49.214;12.276;2023-10-31T04:50:35;1.00;;;0.47;;
48993;SDS011;34804;49.214;12.276;2023-10-31T04:53:02;2.20;;;0.60;;
48993;SDS011;34804;49.214;12.276;2023-10-31T04:55:29;1.20;;;0.60;;
48993;SDS011;34804;49.214;12.276;2023-10-31T04:57:56;2.33;;;0.40;;
48993;SDS011;34804;49.214;12.276;2023-10-31T05:00:23;0.88;;;0.43;;
48993;SDS011;34804;49.214;12.276;2023-10-31T05:02:50;2.05;;;0.82;;
48993;SDS011;34804;49.214;12.276;2023-10-31T05:05:16;1.60;;;0.60;;
48993;SDS011;34804;49.214;12.276;2023-10-31T05:07:44;2.03;;;0.52;;
48993;SDS011;34804;49.214;12.276;2023-10-31T05:10:10;0.77;;;0.40;;
48993;SDS011;34804;49.214;12.276;2023-10-31T05:12:37;1.27;;;0.68;;
48993;SDS011;34804;49.214;12.276;2023-10-31T05:15:05;1.50;;;0.63;;
48993;SDS011;34804;49.214;12.276;2023-10-31T05:17:32;1.88;;;0.88;;
48993;SDS011;34804;49.214;12.276;2023-10-31T05:19:59;4.82;;;0.60;;
48993;SDS011;34804;49.214;12.276;2023-10-31T05:22:26;0.90;;;0.60;;
48993;SDS011;34804;49.214;12.276;2023-10-31T05:24:53;2.30;;;0.50;;
48993;SDS011;34804;49.214;12.276;2023-10-31T05:27:20;0.85;;;0.50;;
48993;SDS011;34804;49.214;12.276;2023-10-31T05:29:47;2.40;;;0.60;;
48993;SDS011;34804;49.214;12.276;2023-10-31T05:32:14;1.33;;;0.73;;
48993;SDS011;34804;49.214;12.276;2023-10-31T05:34:41;2.08;;;0.80;;
48993;SDS011;34804;49.214;12.276;2023-10-31T05:37:08;3.80;;;0.70;;
48993;SDS011;34804;49.214;12.276;2023-10-31T05:39:35;2.47;;;0.50;;
48993;SDS011;34804;49.214;12.276;2023-10-31T05:42:03;2.47;;;0.60;;
48993;SDS011;34804;49.214;12.276;2023-10-31T05:44:31;1.95;;;0.75;;
48993;SDS011;34804;49.214;12.276;2023-10-31T05:46:58;1.17;;;0.60;;
48993;SDS011;34804;49.214;12.276;2023-10-31T05:49:25;1.88;;;0.60;;
48993;SDS011;34804;49.214;12.276;2023-10-31T05:51:52;1.17;;;0.57;;
48993;SDS011;34804;49.214;12.276;2023-10-31T05:54:19;1.33;;;0.63;;
48993;SDS011;34804;49.214;12.276;2023-10-31T05:56:46;3.10;;;0.80;;
48993;SDS011;34804;49.214;12.276;2023-10-31T05:59:13;2.47;;;0.70;;
48993;SDS011;34804;49.214;12.276;2023-10-31T06:01:40;3.40;;;0.50;;
48993;SDS011;34804;49.214;12.276;2023-10-31T06:04:07;1.17;;;0.55;;
48993;SDS011;34804;49.214;12.276;2023-10-31T06:06:36;2.17;;;0.65;;
48993;SDS011;34804;49.214;12.276;2023-10-31T06:09:05;2.58;;;0.93;;
48993;SDS011;34804;49.214;12.276;2023-10-31T06:11:32;1.00;;;0.50;;
48993;SDS011;34804;49.214;12.276;2023-10-31T06:13:59;1.95;;;0.70;;
48993;SDS011;34804;49.214;12.276;2023-10-31T06:16:26;1.98;;;0.70;;
48993;SDS011;34804;49.214;12.276;2023-10-31T06:18:53;1.50;;;0.63;;
48993;SDS011;34804;49.214;12.276;2023-10-31T06:21:20;1.90;;;0.70;;
48993;SDS011;34804;49.214;12.276;2023-10-31T06:23:47;1.85;;;0.60;;
48993;SDS011;34804;49.214;12.276;2023-10-31T06:26:14;1.65;;;0.80;;
48993;SDS011;34804;49.214;12.276;2023-10-31T06:28:41;1.63;;;0.60;;
48993;SDS011;34804;49.214;12.276;2023-10-31T06:31:23;1.90;;;0.77;;
48993;SDS011;34804;49.214;12.276;2023-10-31T06:33:49;1.17;;;0.60;;
48993;SDS011;34804;49.214;12.276;2023-10-31T06:36:16;1.45;;;0.60;;
48993;SDS011;34804;49.214;12.276;2023-10-31T06:38:43;1.50;;;0.60;;
48993;SDS011;34804;49.214;12.276;2023-10-31T06:41:10;1.83;;;0.75;;
48993;SDS011;34804;49.214;12.276;2023-10-31T06:43:37;2.67;;;0.80;;
48993;SDS011;34804;49.214;12.276;2023-10-31T06:46:04;2.88;;;0.60;;
48993;SDS011;34804;49.214;12.276;2023-10-31T06:48:31;3.60;;;0.80;;
48993;SDS011;34804;49.214;12.276;2023-10-31T06:50:58;1.60;;;0.73;;
48993;SDS011;34804;49.214;12.276;2023-10-31T06:53:25;2.85;;;0.65;;
48993;SDS011;34804;49.214;12.276;2023-10-31T06:55:52;1.42;;;0.70;;
48993;SDS011;34804;49.214;12.276;2023-10-31T06:58:19;2.42;;;0.70;;
48993;SDS011;34804;49.214;12.276;2023-10-31T07:00:46;2.38;;;0.57;;
48993;SDS011;34804;49.214;12.276;2023-10-31T07:03:13;0.98;;;0.60;;
48993;SDS011;34804;49.214;12.276;2023-10-31T07:05:42;2.80;;;0.70;;
48993;SDS011;34804;49.214;12.276;2023-10-31T07:08:09;1.77;;;0.63;;
48993;SDS011;34804;49.214;12.276;2023-10-31T07:10:36;1.73;;;0.73;;
48993;SDS011;34804;49.214;12.276;2023-10-31T07:13:03;1.83;;;0.70;;
48993;SDS011;34804;49.214;12.276;2023-10-31T07:15:30;1.88;;;0.70;;
48993;SDS011;34804;49.214;12.276;2023-10-31T07:17:57;4.32;;;0.70;;
48993;SDS011;34804;49.214;12.276;2023-10-31T07:20:24;2.08;;;0.65;;
48993;SDS011;34804;49.214;12.276;2023-10-31T07:22:51;1.25;;;0.70;;
48993;SDS011;34804;49.214;12.276;2023-10-31T07:25:18;1.95;;;0.68;;
48993;SDS011;34804;49.214;12.276;2023-10-31T07:27:45;2.40;;;0.70;;
48993;SDS011;34804;49.214;12.276;2023-10-31T07:30:12;1.15;;;0.52;;
48993;SDS011;34804;49.214;12.276;2023-10-31T07:32:39;2.53;;;0.68;;
48993;SDS011;34804;49.214;12.276;2023-10-31T07:35:06;1.90;;;0.60;;
48993;SDS011;34804;49.214;12.276;2023-10-31T07:37:34;1.08;;;0.65;;
48993;SDS011;34804;49.214;12.276;2023-10-31T07:40:02;1.52;;;0.70;;
48993;SDS011;34804;49.214;12.276;2023-10-31T07:42:30;1.63;;;0.80;;
48993;SDS011;34804;49.214;12.276;2023-10-31T07:44:57;3.10;;;0.70;;
48993;SDS011;34804;49.214;12.276;2023-10-31T07:47:24;1.70;;;0.60;;
48993;SDS011;34804;49.214;12.276;2023-10-31T07:49:51;1.67;;;0.70;;
48993;SDS011;34804;49.214;12.276;2023-10-31T07:52:20;1.35;;;0.50;;
48993;SDS011;34804;49.214;12.276;2023-10-31T07:54:46;1.58;;;0.65;;
48993;SDS011;34804;49.214;12.276;2023-10-31T07:57:13;2.22;;;0.52;;
48993;SDS011;34804;49.214;12.276;2023-10-31T07:59:40;2.00;;;0.73;;
48993;SDS011;34804;49.214;12.276;2023-10-31T08:02:07;3.92;;;0.80;;
48993;SDS011;34804;49.214;12.276;2023-10-31T08:04:34;3.25;;;0.90;;
48993;SDS011;34804;49.214;12.276;2023-10-31T08:07:01;1.75;;;0.55;;
48993;SDS011;34804;49.214;12.276;2023-10-31T08:09:28;1.48;;;0.50;;
48993;SDS011;34804;49.214;12.276;2023-10-31T08:11:55;2.05;;;0.50;;
48993;SDS011;34804;49.214;12.276;2023-10-31T08:14:22;1.50;;;0.65;;
48993;SDS011;34804;49.214;12.276;2023-10-31T08:16:51;1.88;;;0.70;;
48993;SDS011;34804;49.214;12.276;2023-10-31T08:19:18;3.45;;;0.77;;
48993;SDS011;34804;49.214;12.276;2023-10-31T08:21:45;2.17;;;0.85;;
48993;SDS011;34804;49.214;12.276;2023-10-31T08:24:12;2.75;;;1.20;;
48993;SDS011;34804;49.214;12.276;2023-10-31T08:26:39;2.22;;;0.70;;
48993;SDS011;34804;49.214;12.276;2023-10-31T08:29:06;2.03;;;0.70;;
48993;SDS011;34804;49.214;12.276;2023-10-31T08:31:35;2.78;;;1.35;;
48993;SDS011;34804;49.214;12.276;2023-10-31T08:34:02;1.42;;;0.60;;
48993;SDS011;34804;49.214;12.276;2023-10-31T08:36:29;3.58;;;0.60;;
48993;SDS011;34804;49.214;12.276;2023-10-31T08:38:56;3.53;;;0.60;;
48993;SDS011;34804;49.214;12.276;2023-10-31T08:41:23;2.35;;;0.90;;
48993;SDS011;34804;49.214;12.276;2023-10-31T08:43:50;1.95;;;0.65;;
48993;SDS011;34804;49.214;12.276;2023-10-31T08:46:17;2.80;;;0.68;;
48993;SDS011;34804;49.214;12.276;2023-10-31T08:48:44;1.60;;;0.60;;
48993;SDS011;34804;49.214;12.276;2023-10-31T08:51:11;1.73;;;0.50;;
48993;SDS011;34804;49.214;12.276;2023-10-31T08:53:42;3.10;;;0.70;;
48993;SDS011;34804;49.214;12.276;2023-10-31T08:56:09;2.15;;;0.57;;
48993;SDS011;34804;49.214;12.276;2023-10-31T08:58:36;2.47;;;0.60;;
48993;SDS011;34804;49.214;12.276;2023-10-31T09:01:03;2.25;;;0.70;;
48993;SDS011;34804;49.214;12.276;2023-10-31T09:03:30;1.55;;;0.55;;
48993;SDS011;34804;49.214;12.276;2023-10-31T09:05:58;1.85;;;0.63;;
48993;SDS011;34804;49.214;12.276;2023-10-31T09:08:25;1.77;;;0.73;;
48993;SDS011;34804;49.214;12.276;2023-10-31T09:10:52;1.63;;;0.65;;
48993;SDS011;34804;49.214;12.276;2023-10-31T09:13:19;1.98;;;0.70;;
48993;SDS011;34804;49.214;12.276;2023-10-31T09:15:46;2.00;;;0.50;;
48993;SDS011;34804;49.214;12.276;2023-10-31T09:18:13;1.90;;;0.52;;
48993;SDS011;34804;49.214;12.276;2023-10-31T09:20:40;1.13;;;0.38;;
48993;SDS011;34804;49.214;12.276;2023-10-31T09:23:07;2.45;;;0.65;;
48993;SDS011;34804;49.214;12.276;2023-10-31T09:25:34;4.80;;;0.47;;
48993;SDS011;34804;49.214;12.276;2023-10-31T09:28:01;1.27;;;0.50;;
48993;SDS011;34804;49.214;12.276;2023-10-31T09:30:28;1.48;;;0.55;;
48993;SDS011;34804;49.214;12.276;2023-10-31T09:32:56;2.30;;;0.60;;
48993;SDS011;34804;49.214;12.276;2023-10-31T09:35:23;3.10;;;0.60;;
48993;SDS011;34804;49.214;12.276;2023-10-31T09:37:50;3.00;;;0.65;;
48993;SDS011;34804;49.214;12.276;2023-10-31T09:40:17;2.13;;;0.50;;
48993;SDS011;34804;49.214;12.276;2023-10-31T09:42:44;2.03;;;0.60;;
48993;SDS011;34804;49.214;12.276;2023-10-31T09:45:13;1.70;;;0.35;;
48993;SDS011;34804;49.214;12.276;2023-10-31T09:47:40;3.70;;;0.60;;
48993;SDS011;34804;49.214;12.276;2023-10-31T09:50:09;2.50;;;0.60;;
48993;SDS011;34804;49.214;12.276;2023-10-31T09:52:37;1.27;;;0.50;;
48993;SDS011;34804;49.214;12.276;2023-10-31T09:55:05;1.27;;;0.60;;
48993;SDS011;34804;49.214;12.276;2023-10-31T09:57:32;2.50;;;0.55;;
48993;SDS011;34804;49.214;12.276;2023-10-31T10:00:00;2.33;;;0.60;;
48993;SDS011;34804;49.214;12.276;2023-10-31T10:02:28;1.60;;;0.40;;
48993;SDS011;34804;49.214;12.276;2023-10-31T10:04:55;4.32;;;1.10;;
48993;SDS011;34804;49.214;12.276;2023-10-31T10:07:22;0.75;;;0.45;;
48993;SDS011;34804;49.214;12.276;2023-10-31T10:09:49;3.70;;;0.73;;
48993;SDS011;34804;49.214;12.276;2023-10-31T10:12:16;3.60;;;0.65;;
48993;SDS011;34804;49.214;12.276;2023-10-31T10:14:46;3.42;;;0.65;;
48993;SDS011;34804;49.214;12.276;2023-10-31T10:17:14;2.05;;;0.65;;
48993;SDS011;34804;49.214;12.276;2023-10-31T10:19:42;3.70;;;0.70;;
48993;SDS011;34804;49.214;12.276;2023-10-31T10:22:10;2.13;;;0.60;;
48993;SDS011;34804;49.214;12.276;2023-10-31T10:24:38;2.08;;;0.70;;
48993;SDS011;34804;49.214;12.276;2023-10-31T10:27:07;2.00;;;0.60;;
48993;SDS011;34804;49.214;12.276;2023-10-31T10:29:37;0.95;;;0.50;;
48993;SDS011;34804;49.214;12.276;2023-10-31T10:32:05;3.35;;;0.70;;
48993;SDS011;34804;49.214;12.276;2023-10-31T10:34:34;2.10;;;0.70;;
48993;SDS011;34804;49.214;12.276;2023-10-31T10:37:03;2.92;;;0.80;;
48993;SDS011;34804;49.214;12.276;2023-10-31T10:39:32;1.88;;;0.70;;
48993;SDS011;34804;49.214;12.276;2023-10-31T10:42:01;2.83;;;0.70;;
48993;SDS011;34804;49.214;12.276;2023-10-31T10:44:34;3.97;;;0.57;;
48993;SDS011;34804;49.214;12.276;2023-10-31T10:47:02;1.98;;;0.70;;
48993;SDS011;34804;49.214;12.276;2023-10-31T10:49:32;2.65;;;0.60;;
48993;SDS011;34804;49.214;12.276;2023-10-31T10:54:44;1.42;;;0.63;;
48993;SDS011;34804;49.214;12.276;2023-10-31T11:00:03;1.40;;;0.70;;
48993;SDS011;34804;49.214;12.276;2023-10-31T11:02:32;2.10;;;0.60;;
48993;SDS011;34804;49.214;12.276;2023-10-31T11:05:00;1.40;;;0.60;;
48993;SDS011;34804;49.214;12.276;2023-10-31T11:07:29;2.53;;;0.80;;
48993;SDS011;34804;49.214;12.276;2023-10-31T11:09:58;2.13;;;0.60;;
48993;SDS011;34804;49.214;12.276;2023-10-31T11:12:30;4.18;;;0.80;;
48993;SDS011;34804;49.214;12.276;2023-10-31T11:15:02;2.10;;;0.73;;
48993;SDS011;34804;49.214;12.276;2023-10-31T11:17:32;1.20;;;0.50;;
48993;SDS011;34804;49.214;12.276;2023-10-31T11:20:01;1.13;;;0.47;;
48993;SDS011;34804;49.214;12.276;2023-10-31T11:22:39;1.83;;;0.60;;
48993;SDS011;34804;49.214;12.276;2023-10-31T11:25:08;0.82;;;0.43;;
48993;SDS011;34804;49.214;12.276;2023-10-31T11:27:49;3.03;;;0.70;;
48993;SDS011;34804;49.214;12.276;2023-10-31T11:30:27;2.47;;;0.47;;
48993;SDS011;34804;49.214;12.276;2023-10-31T11:32:59;1.35;;;0.50;;
48993;SDS011;34804;49.214;12.276;2023-10-31T11:35:34;1.55;;;0.63;;
48993;SDS011;34804;49.214;12.276;2023-10-31T11:38:05;0.52;;;0.40;;
48993;SDS011;34804;49.214;12.276;2023-10-31T11:40:34;1.05;;;0.55;;
48993;SDS011;34804;49.214;12.276;2023-10-31T11:43:03;1.65;;;0.75;;
48993;SDS011;34804;49.214;12.276;2023-10-31T11:45:35;2.42;;;0.40;;
48993;SDS011;34804;49.214;12.276;2023-10-31T11:48:04;1.95;;;0.73;;
48993;SDS011;34804;49.214;12.276;2023-10-31T11:50:31;2.00;;;0.50;;
48993;SDS011;34804;49.214;12.276;2023-10-31T11:55:33;3.63;;;0.70;;
48993;SDS011;34804;49.214;12.276;2023-10-31T12:00:41;2.88;;;0.63;;
48993;SDS011;34804;49.214;12.276;2023-10-31T12:03:09;1.40;;;0.50;;
48993;SDS011;34804;49.214;12.276;2023-10-31T12:05:36;2.15;;;0.80;;
48993;SDS011;34804;49.214;12.276;2023-10-31T12:08:03;1.15;;;0.55;;
48993;SDS011;34804;49.214;12.276;2023-10-31T12:10:30;1.33;;;0.60;;
48993;SDS011;34804;49.214;12.276;2023-10-31T12:13:00;1.23;;;0.70;;
48993;SDS011;34804;49.214;12.276;2023-10-31T12:15:27;2.50;;;0.75;;
48993;SDS011;34804;49.214;12.276;2023-10-31T12:17:57;2.20;;;0.90;;
48993;SDS011;34804;49.214;12.276;2023-10-31T12:20:25;4.18;;;0.65;;
48993;SDS011;34804;49.214;12.276;2023-10-31T12:23:02;1.25;;;0.60;;
48993;SDS011;34804;49.214;12.276;2023-10-31T12:25:30;1.23;;;0.60;;
48993;SDS011;34804;49.214;12.276;2023-10-31T12:28:02;1.65;;;0.70;;
48993;SDS011;34804;49.214;12.276;2023-10-31T12:30:29;1.83;;;0.80;;
48993;SDS011;34804;49.214;12.276;2023-10-31T12:32:56;1.63;;;0.80;;
48993;SDS011;34804;49.214;12.276;2023-10-31T12:35:24;1.48;;;0.80;;
48993;SDS011;34804;49.214;12.276;2023-10-31T12:37:53;1.95;;;0.85;;
48993;SDS011;34804;49.214;12.276;2023-10-31T12:40:21;1.85;;;0.95;;
48993;SDS011;34804;49.214;12.276;2023-10-31T12:42:49;1.50;;;0.52;;
48993;SDS011;34804;49.214;12.276;2023-10-31T12:45:17;2.75;;;0.80;;
48993;SDS011;34804;49.214;12.276;2023-10-31T12:47:45;2.30;;;0.73;;
48993;SDS011;34804;49.214;12.276;2023-10-31T12:50:31;4.50;;;1.30;;
48993;SDS011;34804;49.214;12.276;2023-10-31T12:52:59;3.97;;;0.73;;
48993;SDS011;34804;49.214;12.276;2023-10-31T12:55:27;1.38;;;0.70;;
48993;SDS011;34804;49.214;12.276;2023-10-31T12:57:57;1.70;;;1.00;;
48993;SDS011;34804;49.214;12.276;2023-10-31T13:00:31;4.47;;;1.02;;
48993;SDS011;34804;49.214;12.276;2023-10-31T13:03:01;1.38;;;0.68;;
48993;SDS011;34804;49.214;12.276;2023-10-31T13:05:30;1.55;;;0.68;;
48993;SDS011;34804;49.214;12.276;2023-10-31T13:07:57;1.23;;;0.60;;
48993;SDS011;34804;49.214;12.276;2023-10-31T13:10:27;3.17;;;0.70;;
48993;SDS011;34804;49.214;12.276;2023-10-31T13:13:03;3.30;;;0.77;;
48993;SDS011;34804;49.214;12.276;2023-10-31T13:15:30;1.17;;;0.68;;
48993;SDS011;34804;49.214;12.276;2023-10-31T13:17:57;1.35;;;0.55;;
48993;SDS011;34804;49.214;12.276;2023-10-31T13:20:25;3.92;;;0.82;;
48993;SDS011;34804;49.214;12.276;2023-10-31T13:22:53;3.65;;;0.80;;
48993;SDS011;34804;49.214;12.276;2023-10-31T13:25:19;2.00;;;0.80;;
48993;SDS011;34804;49.214;12.276;2023-10-31T13:27:46;2.60;;;0.80;;
48993;SDS011;34804;49.214;12.276;2023-10-31T13:30:17;3.03;;;0.98;;
48993;SDS011;34804;49.214;12.276;2023-10-31T13:32:44;1.85;;;0.85;;
48993;SDS011;34804;49.214;12.276;2023-10-31T13:35:12;2.15;;;0.60;;
48993;SDS011;34804;49.214;12.276;2023-10-31T13:37:40;11.02;;;1.40;;
48993;SDS011;34804;49.214;12.276;2023-10-31T13:40:08;2.40;;;0.80;;
48993;SDS011;34804;49.214;12.276;2023-10-31T13:42:35;3.15;;;0.90;;
48993;SDS011;34804;49.214;12.276;2023-10-31T13:45:03;2.80;;;0.90;;
48993;SDS011;34804;49.214;12.276;2023-10-31T13:47:32;4.55;;;0.85;;
48993;SDS011;34804;49.214;12.276;2023-10-31T13:50:00;4.63;;;1.10;;
48993;SDS011;34804;49.214;12.276;2023-10-31T13:52:28;2.42;;;1.00;;
48993;SDS011;34804;49.214;12.276;2023-10-31T13:54:54;1.63;;;0.80;;
48993;SDS011;34804;49.214;12.276;2023-10-31T13:57:21;4.25;;;1.02;;
48993;SDS011;34804;49.214;12.276;2023-10-31T13:59:49;3.97;;;0.90;;
48993;SDS011;34804;49.214;12.276;2023-10-31T14:02:17;4.25;;;1.00;;
48993;SDS011;34804;49.214;12.276;2023-10-31T14:04:44;3.47;;;1.00;;
48993;SDS011;34804;49.214;12.276;2023-10-31T14:07:13;2.78;;;1.00;;
48993;SDS011;34804;49.214;12.276;2023-10-31T14:09:48;4.28;;;1.02;;
48993;SDS011;34804;49.214;12.276;2023-10-31T14:12:15;2.97;;;0.90;;
48993;SDS011;34804;49.214;12.276;2023-10-31T14:14:42;4.00;;;0.80;;
48993;SDS011;34804;49.214;12.276;2023-10-31T14:17:09;2.13;;;0.82;;
48993;SDS011;34804;49.214;12.276;2023-10-31T14:19:36;3.58;;;1.00;;
48993;SDS011;34804;49.214;12.276;2023-10-31T14:22:03;3.50;;;0.93;;
48993;SDS011;34804;49.214;12.276;2023-10-31T14:24:30;2.88;;;1.13;;
48993;SDS011;34804;49.214;12.276;2023-10-31T14:26:58;2.92;;;1.00;;
48993;SDS011;34804;49.214;12.276;2023-10-31T14:29:25;4.20;;;1.10;;
48993;SDS011;34804;49.214;12.276;2023-10-31T14:31:53;3.97;;;1.10;;
48993;SDS011;34804;49.214;12.276;2023-10-31T14:34:21;2.95;;;0.80;;
48993;SDS011;34804;49.214;12.276;2023-10-31T14:36:47;4.93;;;1.15;;
48993;SDS011;34804;49.214;12.276;2023-10-31T14:39:15;3.60;;;0.90;;
48993;SDS011;34804;49.214;12.276;2023-10-31T14:41:41;3.72;;;1.00;;
48993;SDS011;34804;49.214;12.276;2023-10-31T14:44:09;4.15;;;1.17;;
48993;SDS011;34804;49.214;12.276;2023-10-31T14:46:36;2.25;;;0.95;;